Aviation Digital Data Service (ADDS)

Output produced by METARs form (0556 UTC 07 April 2020)
found at http://www.aviationweather.gov/metar/data/
 
Forecast for: LERT (ROTA NAVAL STATI, ES)
Text: TAF LERT 070500Z 0706/0715 13006KT 9999 FEW020
Forecast period: 0600 to 1500 UTC 07 April 2020
Forecast type: FROM: standard forecast or significant change
Winds: from the SE (130 degrees) at 7 MPH (6 knots; 3.1 m/s)
Visibility: 6 or more miles 10+ km)
Ceiling: at least 12,000 feet AGL
Clouds: few clouds at 2000 feet AGL
Weather: no significant weather forecast for this period
Text: PROB40 0712/0715 24010KT
Forecast period: 1200 to 1500 UTC 07 April 2020
Forecast type: PROBABLE: 40 percent likelihood of the following during this time
Winds: from the WSW (240 degrees) at 12 MPH (10 knots; 5.1 m/s)
Visibility: missing
Ceiling: unknown
Clouds: missing
Weather: no significant weather forecast for this period